KRBL/RBL METAR and TAF weather

Enter ICAO airport designator
Station Type Date Time Source
KRBL METAR 2020/04/02 01:54 UTC NOAA

KRBL 020154Z AUTO 36007KT 10SM CLR 16/M06 A2995 RMK AO2 SLP141 T01611061


Station Type Date Time Source
KRBL Decoded METAR 2020/04/02 01:54 UTC NOAA

RED BLUFF MUNICIPAL AIRPORT, CA, United States (KRBL) 40-09N 122-15W 104M
Apr 01, 2020 - 09:54 PM EDT / 2020.04.02 0154 UTC
Wind: from the N (360 degrees) at 8 MPH (7 KT):0
Visibility: 10 mile(s):0
Sky conditions: clear
Temperature: 61.0 F (16.1 C)
Dew Point: 21.0 F (-6.1 C)
Relative Humidity: 21%
Pressure (altimeter): 29.95 in. Hg (1014 hPa)
ob: KRBL 020154Z AUTO 36007KT 10SM CLR 16/M06 A2995 RMK AO2 SLP141 T01611061
cycle: 2

Station Type Date Time Source
KRBL TAF 2020/04/01 18:34 UTC NOAA

TAF KRBL 011732Z 0118/0218 33015G25KT P6SM SKC
FM020200 35012KT P6SM SKC

Example: see airport list